Time;durP1;ratioP1;P1;durP2;ratioP2;P2;SDS_P1;SDS_P2;PMS_P1;PMS_P2;Temp;Humidity;BMP_temperature;BMP_pressure;BME280_temperature;BME280_humidity;BME280_pressure;Samples;Min_cycle;Max_cycle;Signal;HPM_P1;HPM_P2
2022/05/04 00:01:16;;;;;;;17.48;7.85;;;10.80;99.90;;;;;;5075608;28;20508;-78
2022/05/04 00:03:42;;;;;;;15.38;7.63;;;10.80;99.90;;;;;;5075640;28;20030;-78
2022/05/04 00:06:09;;;;;;;14.80;8.32;;;10.80;99.90;;;;;;5074034;28;20033;-78
2022/05/04 00:08:35;;;;;;;13.68;7.65;;;10.80;99.90;;;;;;5076837;28;20079;-78
2022/05/04 00:11:01;;;;;;;14.48;6.82;;;10.80;99.90;;;;;;5075974;28;20355;-78
2022/05/04 00:13:27;;;;;;;13.88;8.25;;;10.70;99.90;;;;;;5076441;28;20029;-78
2022/05/04 00:15:54;;;;;;;13.90;8.27;;;10.80;99.90;;;;;;5076902;28;20090;-78
2022/05/04 00:18:19;;;;;;;15.25;8.05;;;10.80;99.90;;;;;;5078036;28;20074;-78
2022/05/04 00:20:45;;;;;;;16.48;7.43;;;10.80;99.90;;;;;;5076961;28;20028;-77
2022/05/04 00:23:11;;;;;;;14.48;8.93;;;10.80;99.90;;;;;;5076587;28;20464;-78
2022/05/04 00:25:37;;;;;;;19.13;8.60;;;10.80;99.90;;;;;;5073858;28;20020;-79
2022/05/04 00:28:04;;;;;;;17.13;8.80;;;10.70;99.90;;;;;;5081725;28;20043;-79
2022/05/04 00:30:33;;;;;;;20.88;9.75;;;10.70;99.90;;;;;;5075500;28;20020;-79
2022/05/04 00:33:00;;;;;;;18.05;9.02;;;10.70;99.90;;;;;;5077799;28;20035;-79
2022/05/04 00:35:25;;;;;;;18.92;10.40;;;10.70;99.90;;;;;;5077609;28;20565;-79
2022/05/04 00:37:51;;;;;;;19.40;11.50;;;10.70;99.90;;;;;;5078029;28;20099;-79
2022/05/04 00:40:17;;;;;;;25.52;11.77;;;10.60;99.90;;;;;;5085256;28;20037;-79
2022/05/04 00:42:43;;;;;;;20.98;11.15;;;10.70;99.90;;;;;;5077557;28;20091;-79
2022/05/04 00:45:09;;;;;;;21.13;10.82;;;10.70;99.90;;;;;;5077775;28;20069;-79
2022/05/04 00:47:35;;;;;;;20.38;10.15;;;10.70;99.90;;;;;;5082051;28;20082;-79
2022/05/04 00:50:06;;;;;;;20.85;10.70;;;10.70;99.90;;;;;;5075470;28;20030;-79
2022/05/04 00:52:37;;;;;;;20.80;9.38;;;10.70;99.90;;;;;;5075328;28;20036;-79
2022/05/04 00:55:07;;;;;;;23.40;10.98;;;10.70;99.90;;;;;;5076416;28;20035;-79
2022/05/04 01:00:24;;;;;;;20.30;9.68;;;10.60;99.90;;;;;;5083809;28;20077;-80
2022/05/04 01:02:50;;;;;;;26.23;11.80;;;10.60;99.90;;;;;;5089851;28;20788;-80
2022/05/04 01:05:16;;;;;;;24.67;11.55;;;10.60;99.90;;;;;;5090298;28;20150;-80
2022/05/04 01:07:44;;;;;;;25.65;11.05;;;10.60;99.90;;;;;;5082644;28;20107;-80
2022/05/04 01:10:12;;;;;;;21.80;10.95;;;10.60;99.90;;;;;;5079157;28;20017;-80
2022/05/04 01:12:47;;;;;;;22.27;10.20;;;10.60;99.90;;;;;;5078819;28;20112;-80
2022/05/04 01:15:14;;;;;;;19.60;9.27;;;10.60;99.90;;;;;;5082274;28;20024;-80
2022/05/04 01:17:40;;;;;;;24.98;10.90;;;10.50;99.90;;;;;;5075820;28;20465;-80
2022/05/04 01:20:08;;;;;;;29.65;11.88;;;10.50;99.90;;;;;;5079864;28;20024;-80
2022/05/04 01:22:34;;;;;;;22.70;10.35;;;10.40;99.90;;;;;;5077427;28;20021;-80
2022/05/04 01:25:00;;;;;;;19.83;10.77;;;10.40;99.90;;;;;;5083075;28;20020;-79
2022/05/04 01:27:26;;;;;;;20.67;10.50;;;10.30;99.90;;;;;;5081908;28;20103;-80
2022/05/04 01:29:52;;;;;;;22.25;9.73;;;10.30;99.90;;;;;;5081587;28;20161;-80
2022/05/04 01:32:17;;;;;;;22.75;10.55;;;10.20;99.90;;;;;;5086509;28;20524;-79
2022/05/04 01:34:43;;;;;;;19.92;10.40;;;10.20;99.90;;;;;;5082534;28;20020;-80
2022/05/04 01:37:09;;;;;;;20.70;9.90;;;10.20;99.90;;;;;;5084247;28;20519;-79
2022/05/04 01:39:36;;;;;;;21.10;10.70;;;10.10;99.90;;;;;;5081433;28;20009;-79
2022/05/04 01:42:05;;;;;;;26.95;12.20;;;10.10;99.90;;;;;;5081457;28;20029;-80
2022/05/04 01:44:32;;;;;;;27.88;12.57;;;10.10;99.90;;;;;;5082000;28;20024;-79
2022/05/04 01:46:58;;;;;;;26.88;13.15;;;10.10;99.90;;;;;;5085820;28;20064;-79
2022/05/04 01:49:24;;;;;;;27.73;12.43;;;10.10;99.90;;;;;;5081312;28;20456;-79
2022/05/04 01:51:49;;;;;;;26.50;12.80;;;10.10;99.90;;;;;;5085066;28;20020;-79
2022/05/04 01:54:16;;;;;;;29.08;13.63;;;10.10;99.90;;;;;;5081030;28;20032;-79
2022/05/04 01:56:41;;;;;;;22.95;12.38;;;10.00;99.90;;;;;;5103928;23;20036;-78
2022/05/04 01:59:07;;;;;;;28.02;12.95;;;10.10;99.90;;;;;;5080727;28;20033;-78
2022/05/04 02:01:33;;;;;;;33.50;14.93;;;10.00;99.90;;;;;;5080934;28;20020;-78
2022/05/04 02:03:59;;;;;;;27.90;14.13;;;10.00;99.90;;;;;;5080525;28;20021;-78
2022/05/04 02:06:26;;;;;;;28.58;14.20;;;9.90;99.90;;;;;;5079098;28;20103;-78
2022/05/04 02:08:52;;;;;;;35.58;15.32;;;9.90;99.90;;;;;;5084165;28;20020;-78
2022/05/04 02:11:18;;;;;;;29.48;14.40;;;9.90;99.90;;;;;;5074334;28;20461;-78
2022/05/04 02:13:44;;;;;;;33.42;17.23;;;9.90;99.90;;;;;;5082111;28;20024;-78
2022/05/04 02:16:10;;;;;;;28.75;15.02;;;9.90;99.90;;;;;;5078340;28;20029;-78
2022/05/04 02:18:35;;;;;;;28.02;15.40;;;9.90;99.90;;;;;;5080494;28;20026;-78
2022/05/04 02:21:01;;;;;;;32.88;15.18;;;9.80;99.90;;;;;;5080125;28;20025;-78
2022/05/04 02:23:27;;;;;;;33.08;15.80;;;9.80;99.90;;;;;;5080354;28;20037;-77
2022/05/04 02:25:53;;;;;;;30.08;16.80;;;9.80;99.90;;;;;;5080310;28;20044;-78
2022/05/04 02:28:18;;;;;;;33.10;15.88;;;9.90;99.90;;;;;;5079729;28;20028;-78
2022/05/04 02:30:44;;;;;;;30.23;16.05;;;9.90;99.90;;;;;;5079953;28;20044;-78
2022/05/04 02:33:11;;;;;;;26.70;16.38;;;10.00;99.90;;;;;;5081905;28;20024;-76
2022/05/04 02:38:24;;;;;;;24.10;13.63;;;10.00;99.90;;;;;;5077425;28;20040;-78
2022/05/04 02:40:50;;;;;;;24.70;14.38;;;10.00;99.90;;;;;;5077286;28;20048;-78
2022/05/04 02:43:16;;;;;;;26.13;13.23;;;10.00;99.90;;;;;;5079048;28;20462;-77
2022/05/04 02:45:42;;;;;;;24.27;12.68;;;10.00;99.90;;;;;;5079793;28;20063;-77
2022/05/04 02:48:08;;;;;;;22.35;12.93;;;10.00;99.90;;;;;;5078156;28;20072;-77
2022/05/04 02:50:35;;;;;;;21.40;13.27;;;9.90;99.90;;;;;;5080153;28;20095;-77
2022/05/04 02:53:01;;;;;;;22.67;13.32;;;9.90;99.90;;;;;;5079327;28;20107;-78
2022/05/04 02:55:27;;;;;;;25.35;13.55;;;10.00;99.90;;;;;;5079494;28;20111;-77
2022/05/04 02:57:52;;;;;;;23.65;14.73;;;9.90;99.90;;;;;;5079960;28;20356;-78
2022/05/04 03:00:18;;;;;;;30.23;14.15;;;9.90;99.90;;;;;;5076603;28;20088;-77
2022/05/04 03:02:44;;;;;;;23.38;14.18;;;10.00;99.90;;;;;;5076660;28;20017;-77
2022/05/04 03:05:11;;;;;;;26.52;13.77;;;10.00;99.90;;;;;;5078310;28;20029;-78
2022/05/04 03:07:37;;;;;;;24.98;14.45;;;10.00;99.90;;;;;;5079154;28;20029;-77
2022/05/04 03:10:04;;;;;;;23.05;15.35;;;10.00;99.90;;;;;;5079201;28;20017;-77
2022/05/04 03:12:30;;;;;;;31.85;14.75;;;9.90;99.90;;;;;;5078918;28;20024;-77
2022/05/04 03:14:56;;;;;;;31.83;15.95;;;9.80;99.90;;;;;;5079053;28;20457;-78
2022/05/04 03:17:22;;;;;;;25.92;15.55;;;9.80;99.90;;;;;;5079112;28;20020;-78
2022/05/04 03:19:48;;;;;;;28.40;14.73;;;9.80;99.90;;;;;;5078931;28;20095;-78
2022/05/04 03:22:14;;;;;;;26.23;14.45;;;9.70;99.90;;;;;;5076725;28;20461;-78
2022/05/04 03:24:40;;;;;;;27.52;15.38;;;9.70;99.90;;;;;;5076453;28;20032;-78
2022/05/04 03:27:07;;;;;;;28.00;15.85;;;9.60;99.90;;;;;;5082287;22;20095;-78
2022/05/04 03:29:33;;;;;;;34.03;17.02;;;9.70;99.90;;;;;;5055480;28;20021;-78
2022/05/04 03:31:59;;;;;;;29.55;14.40;;;9.60;99.90;;;;;;5056101;28;20044;-78
2022/05/04 03:34:25;;;;;;;31.23;15.00;;;9.70;99.90;;;;;;5056649;28;20060;-78
2022/05/04 03:36:51;;;;;;;30.83;16.40;;;9.70;99.90;;;;;;5063611;28;20107;-78
2022/05/04 03:39:18;;;;;;;29.92;14.82;;;9.60;99.90;;;;;;5056226;28;20082;-77
2022/05/04 03:41:44;;;;;;;27.42;14.27;;;9.60;99.90;;;;;;5056504;28;20039;-77
2022/05/04 03:44:10;;;;;;;31.98;15.95;;;9.70;99.90;;;;;;5058293;28;20501;-78
2022/05/04 03:46:48;;;;;;;27.40;14.95;;;9.70;99.90;;;;;;5058062;28;20029;-78
2022/05/04 03:49:15;;;;;;;33.45;15.75;;;9.70;99.90;;;;;;5061609;28;20024;-77
2022/05/04 03:51:41;;;;;;;35.00;15.73;;;9.70;99.90;;;;;;5060122;28;20059;-77
2022/05/04 03:54:08;;;;;;;32.15;15.65;;;9.70;99.90;;;;;;5054974;28;20480;-78
2022/05/04 03:56:34;;;;;;;26.92;14.98;;;9.70;99.90;;;;;;5055856;28;20975;-77
2022/05/04 03:59:01;;;;;;;29.00;15.40;;;9.80;99.90;;;;;;5063150;28;20527;-78
2022/05/04 04:01:26;;;;;;;29.05;15.02;;;9.80;99.90;;;;;;5056825;28;20399;-78
2022/05/04 04:03:52;;;;;;;25.35;14.82;;;9.80;99.90;;;;;;5053948;28;20470;-78
2022/05/04 04:06:18;;;;;;;29.00;15.90;;;9.80;99.90;;;;;;5054373;28;20028;-78
2022/05/04 04:08:44;;;;;;;29.35;15.20;;;9.80;99.90;;;;;;5058468;28;20029;-78
2022/05/04 04:11:10;;;;;;;23.10;13.25;;;9.80;99.90;;;;;;5055766;28;20403;-78
2022/05/04 04:13:39;;;;;;;27.48;15.07;;;9.90;99.90;;;;;;5055655;28;20359;-78
2022/05/04 04:16:05;;;;;;;28.17;13.57;;;9.90;99.90;;;;;;5056329;28;20025;-78
2022/05/04 04:18:31;;;;;;;28.27;13.60;;;9.80;99.90;;;;;;5058287;28;20033;-78
2022/05/04 04:23:41;;;;;;;21.90;12.25;;;9.90;99.90;;;;;;5055255;28;20036;-79
2022/05/04 04:26:09;;;;;;;22.60;12.45;;;9.90;99.90;;;;;;5074407;23;20033;-78
2022/05/04 04:28:38;;;;;;;28.17;14.52;;;9.90;99.90;;;;;;5073596;28;20033;-78
2022/05/04 04:31:04;;;;;;;23.73;12.57;;;9.90;99.90;;;;;;5075601;28;20087;-78
2022/05/04 04:33:30;;;;;;;21.08;12.18;;;10.00;99.90;;;;;;5074956;28;20036;-79
2022/05/04 04:35:57;;;;;;;23.23;13.38;;;10.00;99.90;;;;;;5077204;28;20028;-79
2022/05/04 04:38:23;;;;;;;28.75;14.45;;;10.00;99.90;;;;;;5078145;28;20033;-78
2022/05/04 04:40:50;;;;;;;21.40;13.20;;;10.00;99.90;;;;;;5078392;28;20100;-78
2022/05/04 04:43:15;;;;;;;26.63;13.30;;;10.00;99.90;;;;;;5075342;28;20028;-78
2022/05/04 04:45:44;;;;;;;25.90;13.60;;;10.00;99.90;;;;;;5077874;28;20032;-78
2022/05/04 04:48:10;;;;;;;27.38;14.45;;;9.90;99.90;;;;;;5077929;28;20028;-77
2022/05/04 04:50:36;;;;;;;20.45;12.65;;;10.00;99.90;;;;;;5075890;28;20035;-78
2022/05/04 04:53:02;;;;;;;22.75;12.57;;;10.00;99.90;;;;;;5075090;28;20032;-78
2022/05/04 04:55:28;;;;;;;23.90;12.85;;;10.10;99.90;;;;;;5075097;28;20029;-78
2022/05/04 04:57:54;;;;;;;31.05;13.40;;;10.10;99.90;;;;;;5079374;28;20553;-78
2022/05/04 05:00:20;;;;;;;23.33;12.95;;;10.20;99.90;;;;;;5078949;28;20113;-78
2022/05/04 05:02:46;;;;;;;27.92;13.20;;;10.20;99.90;;;;;;5081789;28;20028;-78
2022/05/04 05:05:12;;;;;;;28.63;13.93;;;10.20;99.90;;;;;;5081607;28;20120;-78
2022/05/04 05:07:38;;;;;;;25.75;13.93;;;10.20;99.90;;;;;;5084766;28;20114;-78
2022/05/04 05:10:05;;;;;;;27.23;14.63;;;10.20;99.90;;;;;;5079140;28;20472;-78
2022/05/04 05:12:32;;;;;;;28.15;13.60;;;10.10;99.90;;;;;;5080654;28;20667;-78
2022/05/04 05:17:41;;;;;;;33.83;15.65;;;10.10;99.90;;;;;;5081520;28;20035;-80
2022/05/04 05:20:08;;;;;;;32.42;15.65;;;10.10;99.90;;;;;;5081651;28;20024;-80
2022/05/04 05:22:34;;;;;;;29.17;15.50;;;10.20;99.90;;;;;;5082033;28;20074;-81
2022/05/04 05:24:59;;;;;;;32.33;14.52;;;10.20;99.90;;;;;;5081555;28;20028;-81
2022/05/04 05:27:25;;;;;;;29.70;14.63;;;10.20;99.90;;;;;;5089012;22;20456;-79
2022/05/04 05:29:51;;;;;;;29.20;15.10;;;10.20;99.90;;;;;;5081464;28;20033;-79
2022/05/04 05:32:17;;;;;;;29.70;16.40;;;10.20;99.90;;;;;;5081125;28;20116;-79
2022/05/04 05:34:42;;;;;;;29.13;15.15;;;10.30;99.90;;;;;;5081082;28;20385;-79
2022/05/04 05:37:08;;;;;;;32.78;16.55;;;10.30;99.90;;;;;;5080638;28;20027;-79
2022/05/04 05:39:34;;;;;;;34.08;16.02;;;10.40;99.90;;;;;;5078428;28;20031;-78
2022/05/04 05:42:00;;;;;;;31.83;16.27;;;10.40;99.90;;;;;;5077140;28;20012;-79
2022/05/04 05:44:26;;;;;;;29.88;15.73;;;10.50;99.90;;;;;;5079598;28;20027;-78
2022/05/04 05:46:52;;;;;;;32.83;17.25;;;10.60;99.90;;;;;;5080589;28;20032;-79
2022/05/04 05:49:18;;;;;;;37.17;17.17;;;10.60;99.90;;;;;;5080187;28;20028;-79
2022/05/04 05:51:43;;;;;;;35.88;16.95;;;10.60;99.90;;;;;;5081173;28;20021;-80
2022/05/04 05:54:09;;;;;;;32.30;16.52;;;10.70;99.90;;;;;;5081193;28;20016;-79
2022/05/04 05:56:35;;;;;;;30.60;17.25;;;10.70;99.90;;;;;;5080601;28;20020;-79
2022/05/04 05:59:00;;;;;;;38.30;18.73;;;10.80;99.90;;;;;;5080419;28;20487;-80
2022/05/04 06:01:26;;;;;;;35.65;17.40;;;10.90;99.90;;;;;;5085197;28;20016;-80
2022/05/04 06:03:52;;;;;;;35.05;18.00;;;10.90;99.90;;;;;;5077816;28;20029;-81
2022/05/04 06:06:19;;;;;;;34.00;18.48;;;11.00;99.90;;;;;;5078205;28;20024;-80
2022/05/04 06:08:44;;;;;;;32.75;16.75;;;11.00;99.90;;;;;;5080846;28;20039;-80
2022/05/04 06:11:10;;;;;;;29.63;16.40;;;11.10;99.90;;;;;;5079938;28;20024;-80
2022/05/04 06:13:36;;;;;;;30.27;15.23;;;11.20;99.90;;;;;;5078907;28;20150;-80
2022/05/04 06:16:02;;;;;;;25.30;13.90;;;11.30;99.90;;;;;;5077028;28;20024;-81
2022/05/04 06:18:27;;;;;;;28.75;14.73;;;11.30;99.90;;;;;;5077809;28;20500;-80
2022/05/04 06:20:53;;;;;;;28.13;15.15;;;11.40;99.90;;;;;;5077761;28;20097;-81
2022/05/04 06:23:19;;;;;;;27.63;13.48;;;11.50;99.90;;;;;;5079910;28;20107;-80
2022/05/04 06:25:45;;;;;;;23.63;13.48;;;11.60;99.90;;;;;;5080253;28;20031;-81
2022/05/04 06:28:12;;;;;;;22.85;12.18;;;11.70;99.90;;;;;;5099819;22;20041;-79
2022/05/04 06:36:07;;;;;;;21.92;12.00;;;11.80;99.90;;;;;;5076879;28;20047;-80
2022/05/04 06:38:33;;;;;;;19.35;11.50;;;11.90;99.90;;;;;;5071494;28;20028;-80
2022/05/04 06:41:00;;;;;;;22.50;11.63;;;12.00;99.90;;;;;;5071337;28;20024;-79
2022/05/04 06:43:25;;;;;;;20.63;9.73;;;12.00;99.90;;;;;;5071544;28;20453;-80
2022/05/04 06:45:51;;;;;;;19.92;10.15;;;12.00;99.90;;;;;;5071665;28;20138;-80
2022/05/04 06:48:17;;;;;;;19.27;10.35;;;12.10;99.90;;;;;;5070763;28;20042;-80
2022/05/04 06:50:43;;;;;;;19.40;10.20;;;12.10;99.90;;;;;;5070569;28;20043;-80
2022/05/04 06:53:08;;;;;;;20.13;11.43;;;12.20;99.90;;;;;;5071269;28;20480;-80
2022/05/04 06:55:34;;;;;;;19.13;11.15;;;12.20;99.90;;;;;;5070913;28;20020;-80
2022/05/04 06:58:00;;;;;;;17.10;9.57;;;12.20;99.90;;;;;;5071477;28;20107;-80
2022/05/04 07:00:26;;;;;;;25.85;11.75;;;12.10;99.90;;;;;;5070941;28;20021;-80
2022/05/04 07:02:52;;;;;;;20.17;10.63;;;12.00;99.90;;;;;;5070671;28;20092;-80
2022/05/04 07:05:17;;;;;;;18.98;10.32;;;12.00;99.90;;;;;;5071145;28;20505;-81
2022/05/04 07:07:43;;;;;;;18.33;10.50;;;11.90;99.90;;;;;;5070794;28;20031;-80
2022/05/04 07:10:09;;;;;;;17.80;9.93;;;11.90;99.90;;;;;;5070933;28;20020;-81
2022/05/04 07:12:35;;;;;;;18.85;10.52;;;11.90;99.90;;;;;;5070334;28;20028;-80
2022/05/04 07:15:01;;;;;;;20.63;11.60;;;11.80;99.90;;;;;;5069959;28;20012;-80
2022/05/04 07:17:27;;;;;;;20.92;9.75;;;11.90;99.90;;;;;;5070124;28;20500;-80
2022/05/04 07:19:53;;;;;;;13.93;8.80;;;11.90;99.90;;;;;;5070886;28;20024;-81
2022/05/04 07:22:19;;;;;;;16.80;9.43;;;12.00;99.90;;;;;;5070119;28;20012;-81
2022/05/04 07:24:45;;;;;;;19.73;10.20;;;12.00;99.90;;;;;;5070127;28;20052;-81
2022/05/04 07:27:11;;;;;;;19.13;9.55;;;12.10;99.90;;;;;;5093750;22;20033;-83
2022/05/04 07:29:36;;;;;;;22.50;9.98;;;12.20;99.90;;;;;;5091304;28;20855;-83
2022/05/04 07:32:03;;;;;;;18.75;9.85;;;12.30;99.90;;;;;;5090962;28;20469;-84
2022/05/04 07:34:29;;;;;;;21.25;10.80;;;12.50;99.90;;;;;;5070765;28;20461;-83
2022/05/04 07:36:56;;;;;;;22.70;10.35;;;12.60;99.90;;;;;;5085987;28;20027;-84
2022/05/04 07:42:22;;;;;;;20.65;11.48;;;12.80;99.90;;;;;;5079823;28;20035;-89
2022/05/04 07:44:49;;;;;;;18.55;9.93;;;12.90;99.90;;;;;;5079991;28;20116;-88
2022/05/04 07:47:15;;;;;;;20.40;10.63;;;13.00;99.90;;;;;;5079186;28;20036;-89
2022/05/04 07:49:40;;;;;;;19.75;9.57;;;13.00;99.90;;;;;;5071879;28;20069;-88
2022/05/04 07:52:06;;;;;;;18.25;8.70;;;13.20;99.90;;;;;;5078954;28;20107;-89
2022/05/04 07:54:32;;;;;;;16.42;8.32;;;13.20;99.90;;;;;;5079224;28;20466;-88
2022/05/04 07:56:58;;;;;;;18.15;9.73;;;13.30;99.90;;;;;;5084288;28;20035;-89
2022/05/04 07:59:24;;;;;;;18.30;9.65;;;13.20;99.90;;;;;;5076122;28;20118;-88
2022/05/04 08:04:34;;;;;;;18.05;8.45;;;13.30;99.90;;;;;;5076571;28;20058;-88
2022/05/04 08:07:01;;;;;;;20.13;9.63;;;13.30;99.90;;;;;;5084257;28;20073;-85
2022/05/04 08:09:26;;;;;;;18.17;9.40;;;13.30;99.90;;;;;;5080316;28;20063;-88
2022/05/04 08:11:53;;;;;;;15.50;9.07;;;13.20;99.90;;;;;;5079023;28;20433;-87
2022/05/04 08:14:19;;;;;;;15.55;9.75;;;13.20;99.90;;;;;;5079343;28;20024;-88
2022/05/04 08:16:45;;;;;;;17.80;9.07;;;13.30;99.90;;;;;;5082229;28;20461;-88
2022/05/04 08:19:11;;;;;;;18.20;9.70;;;13.50;99.90;;;;;;5076046;28;20096;-89
2022/05/04 08:21:39;;;;;;;14.02;8.77;;;13.70;99.90;;;;;;5078491;28;20466;-87
2022/05/04 08:24:06;;;;;;;16.35;9.63;;;13.80;99.90;;;;;;5083209;28;20046;-88
2022/05/04 08:26:32;;;;;;;16.95;8.27;;;13.80;99.90;;;;;;5097816;22;20715;-84
2022/05/04 08:28:58;;;;;;;19.83;9.07;;;14.00;99.90;;;;;;5082225;28;20024;-85
2022/05/04 08:31:23;;;;;;;24.27;10.43;;;14.10;99.90;;;;;;5071751;28;20023;-84
2022/05/04 08:33:50;;;;;;;17.33;9.77;;;14.10;99.90;;;;;;5070312;28;20074;-83
2022/05/04 08:36:16;;;;;;;19.50;9.68;;;14.40;99.90;;;;;;5067977;28;20035;-84
2022/05/04 08:38:41;;;;;;;17.13;9.25;;;14.60;99.90;;;;;;5058082;28;20359;-84
2022/05/04 08:41:08;;;;;;;22.15;10.82;;;14.90;99.90;;;;;;5051592;28;20040;-85
2022/05/04 08:43:34;;;;;;;25.35;11.63;;;15.20;99.90;;;;;;5050113;28;20045;-84
2022/05/04 08:46:02;;;;;;;26.98;12.90;;;15.20;99.90;;;;;;5043458;28;20481;-84
2022/05/04 08:48:32;;;;;;;21.80;11.40;;;15.60;99.90;;;;;;5050118;28;20064;-85
2022/05/04 08:51:05;;;;;;;26.73;12.40;;;15.60;99.90;;;;;;5050552;28;20017;-85
2022/05/04 08:53:31;;;;;;;26.20;12.90;;;15.70;99.90;;;;;;5050222;28;20226;-84
2022/05/04 08:55:59;;;;;;;21.92;11.00;;;16.00;99.90;;;;;;5058373;28;20017;-84
2022/05/04 08:58:25;;;;;;;25.48;12.50;;;16.00;99.90;;;;;;5056924;28;20024;-86
2022/05/04 09:00:50;;;;;;;23.63;12.40;;;15.80;99.90;;;;;;5051464;28;20087;-85
2022/05/04 09:03:18;;;;;;;27.90;12.00;;;16.20;99.90;;;;;;5056671;28;20473;-86
2022/05/04 09:05:48;;;;;;;22.27;11.80;;;16.40;99.90;;;;;;5055881;28;20369;-86
2022/05/04 09:08:14;;;;;;;18.95;10.45;;;16.60;99.90;;;;;;5055869;28;20036;-84
2022/05/04 09:10:44;;;;;;;21.20;10.55;;;16.60;99.90;;;;;;5055966;28;20086;-85
2022/05/04 09:13:10;;;;;;;25.42;11.48;;;16.60;99.90;;;;;;5051026;28;20078;-85
2022/05/04 09:15:40;;;;;;;27.83;12.98;;;16.70;99.90;;;;;;5053423;28;20536;-86
2022/05/04 09:18:15;;;;;;;20.58;11.23;;;16.60;99.90;;;;;;5055097;28;20052;-86
2022/05/04 09:20:49;;;;;;;22.45;10.63;;;16.70;99.90;;;;;;5056723;28;20021;-85
2022/05/04 09:23:28;;;;;;;22.88;11.80;;;17.20;99.20;;;;;;5043309;28;20036;-86
2022/05/04 09:25:56;;;;;;;21.40;10.48;;;17.70;98.90;;;;;;5050168;28;20014;-86
2022/05/04 09:28:25;;;;;;;20.10;10.75;;;18.20;96.90;;;;;;5091187;22;20131;-89
2022/05/04 09:31:05;;;;;;;20.27;9.93;;;18.30;95.90;;;;;;5078293;28;20012;-88
2022/05/04 09:33:34;;;;;;;19.52;10.35;;;18.80;95.50;;;;;;5077794;28;20035;-87
2022/05/04 09:36:03;;;;;;;21.88;10.18;;;19.00;95.20;;;;;;5076521;28;20073;-87
2022/05/04 09:46:48;;;;;;;19.10;10.25;;;20.70;87.80;;;;;;5064727;28;20039;-86
2022/05/04 09:49:15;;;;;;;20.60;10.45;;;20.10;89.20;;;;;;5072405;28;20016;-87
2022/05/04 09:51:48;;;;;;;19.77;9.70;;;19.80;89.90;;;;;;5061983;28;20099;-88
2022/05/04 09:54:17;;;;;;;21.52;10.55;;;19.50;91.00;;;;;;5067268;28;20034;-86
2022/05/04 09:57:03;;;;;;;20.48;10.40;;;19.20;92.50;;;;;;5069579;28;20013;-90
2022/05/04 09:59:34;;;;;;;20.75;10.82;;;19.00;92.10;;;;;;5065576;28;20066;-89
2022/05/04 10:02:03;;;;;;;19.20;10.45;;;18.60;92.40;;;;;;5066465;28;20028;-88
2022/05/04 10:04:34;;;;;;;23.48;11.48;;;18.80;92.80;;;;;;5073056;28;20056;-86
2022/05/04 10:07:01;;;;;;;20.38;10.48;;;19.00;92.60;;;;;;5073607;28;20401;-86
2022/05/04 10:09:27;;;;;;;20.08;9.45;;;19.10;92.30;;;;;;5066263;28;20016;-90
2022/05/04 10:11:59;;;;;;;20.05;10.13;;;19.60;91.40;;;;;;5072787;28;20021;-87
2022/05/04 10:14:27;;;;;;;24.85;11.55;;;19.60;92.00;;;;;;5072756;28;20037;-90
2022/05/04 10:17:07;;;;;;;22.77;11.75;;;20.00;91.70;;;;;;5059796;28;20016;-86
2022/05/04 10:20:08;;;;;;;18.70;10.00;;;19.90;90.40;;;;;;5064399;28;20461;-89
2022/05/04 10:22:43;;;;;;;20.70;10.73;;;20.10;90.30;;;;;;5067938;28;20024;-86
2022/05/04 10:25:12;;;;;;;18.00;10.55;;;19.70;90.10;;;;;;5060501;28;20036;-85
2022/05/04 10:27:40;;;;;;;22.70;10.27;;;19.50;90.70;;;;;;5089167;22;20041;-84
2022/05/04 10:32:59;;;;;;;21.58;11.05;;;19.90;90.90;;;;;;5075940;28;20031;-85
2022/05/04 10:35:45;;;;;;;21.60;10.73;;;20.20;88.10;;;;;;5076913;28;20047;-87
2022/05/04 10:38:17;;;;;;;21.70;10.73;;;19.90;90.20;;;;;;5068623;28;20033;-86
2022/05/04 10:40:44;;;;;;;22.65;10.93;;;20.70;88.10;;;;;;5072701;28;20013;-86
2022/05/04 10:43:18;;;;;;;20.85;9.85;;;21.20;83.90;;;;;;5065177;28;20035;-84
2022/05/04 10:45:46;;;;;;;16.95;9.90;;;21.50;83.90;;;;;;5070710;28;20032;-86
2022/05/04 10:48:20;;;;;;;19.65;10.13;;;22.00;79.60;;;;;;5070810;28;20492;-84
2022/05/04 10:50:55;;;;;;;18.20;10.07;;;22.30;81.20;;;;;;5071408;28;20099;-84
2022/05/04 10:53:25;;;;;;;20.90;10.15;;;22.60;76.80;;;;;;5072352;28;20017;-85
2022/05/04 10:56:23;;;;;;;17.38;10.32;;;22.60;78.00;;;;;;5070362;28;20070;-85
2022/05/04 10:58:53;;;;;;;17.15;9.63;;;22.20;74.20;;;;;;5067589;28;20041;-86
2022/05/04 11:01:34;;;;;;;18.35;9.65;;;22.70;76.30;;;;;;5064864;28;20533;-84
2022/05/04 11:04:15;;;;;;;15.95;9.30;;;23.30;73.10;;;;;;5069888;28;20097;-85
2022/05/04 11:06:52;;;;;;;17.25;8.70;;;23.60;70.30;;;;;;5060223;28;20017;-85
2022/05/04 11:09:29;;;;;;;19.50;10.23;;;23.80;70.10;;;;;;5068938;28;20031;-85
2022/05/04 11:12:00;;;;;;;17.70;9.88;;;24.00;68.70;;;;;;5070954;28;20366;-87
2022/05/04 11:14:27;;;;;;;14.43;8.80;;;23.50;66.90;;;;;;5070291;28;20036;-85
2022/05/04 11:16:54;;;;;;;18.65;10.23;;;22.90;68.90;;;;;;5071845;28;20063;-84
2022/05/04 11:19:23;;;;;;;17.63;10.00;;;22.90;70.70;;;;;;5069852;28;20023;-86
2022/05/04 11:21:49;;;;;;;18.88;10.30;;;23.10;69.20;;;;;;5064382;28;20016;-84
2022/05/04 11:24:16;;;;;;;22.10;10.60;;;22.90;69.30;;;;;;5070912;28;20039;-85
2022/05/04 11:26:50;;;;;;;18.80;9.90;;;22.60;74.20;;;;;;5092351;22;20082;-89
2022/05/04 11:29:17;;;;;;;16.65;9.43;;;22.90;70.30;;;;;;5073638;28;20028;-90
2022/05/04 11:31:47;;;;;;;19.58;10.27;;;22.10;70.10;;;;;;5079779;28;20012;-89
2022/05/04 11:34:17;;;;;;;20.98;10.30;;;21.50;72.60;;;;;;5072528;28;20031;-87
2022/05/04 11:36:45;;;;;;;18.98;11.00;;;20.90;76.60;;;;;;5079479;28;20020;-88
2022/05/04 11:39:15;;;;;;;22.83;11.57;;;20.20;80.10;;;;;;5062186;28;20487;-87
2022/05/04 11:41:43;;;;;;;22.00;10.23;;;19.90;85.20;;;;;;5052568;28;20025;-88
2022/05/04 11:44:09;;;;;;;18.20;9.98;;;19.50;84.10;;;;;;5064822;28;20017;-88
2022/05/04 11:46:35;;;;;;;23.52;11.35;;;19.20;88.50;;;;;;5061078;28;20021;-89
2022/05/04 11:49:01;;;;;;;20.08;11.55;;;19.30;89.70;;;;;;5060592;28;20017;-89
2022/05/04 11:51:26;;;;;;;21.65;12.18;;;19.30;90.30;;;;;;5064561;28;20112;-87
2022/05/04 11:53:52;;;;;;;19.45;10.45;;;19.00;90.90;;;;;;5060563;28;20458;-84
2022/05/04 11:56:18;;;;;;;24.00;12.25;;;19.10;91.50;;;;;;5060177;28;20039;-84
2022/05/04 11:58:43;;;;;;;20.95;11.30;;;19.00;90.60;;;;;;5064218;28;20012;-87
2022/05/04 12:01:10;;;;;;;23.38;11.90;;;18.50;91.70;;;;;;5060034;28;20028;-85
2022/05/04 12:03:38;;;;;;;26.13;13.35;;;18.20;92.20;;;;;;5060298;28;20021;-88
2022/05/04 12:06:09;;;;;;;22.75;11.13;;;17.80;93.70;;;;;;5064135;28;20063;-88
2022/05/04 12:08:36;;;;;;;26.63;12.87;;;17.80;94.50;;;;;;5058756;28;20032;-88
2022/05/04 12:11:04;;;;;;;24.77;12.55;;;17.70;95.20;;;;;;5051930;28;20055;-86
2022/05/04 12:13:30;;;;;;;20.25;10.70;;;17.80;96.10;;;;;;5059416;28;20378;-87
2022/05/04 12:15:56;;;;;;;26.20;12.57;;;17.60;96.50;;;;;;5058217;28;20017;-87
2022/05/04 12:18:29;;;;;;;26.30;11.73;;;17.60;97.10;;;;;;5059370;28;20029;-90
2022/05/04 12:20:56;;;;;;;26.52;12.95;;;17.50;97.80;;;;;;5058574;28;20028;-86
2022/05/04 12:23:23;;;;;;;28.80;13.00;;;17.60;98.40;;;;;;5058297;28;20573;-87
2022/05/04 12:25:49;;;;;;;21.40;10.10;;;17.40;98.60;;;;;;5054528;28;20066;-88
2022/05/04 12:28:15;;;;;;;27.60;12.98;;;17.10;98.40;;;;;;5100768;23;20047;-86
2022/05/04 12:33:35;;;;;;;22.52;12.05;;;16.80;99.90;;;;;;5086459;28;20039;-85
2022/05/04 12:36:07;;;;;;;23.65;12.45;;;16.70;99.40;;;;;;5089825;28;20396;-85
2022/05/04 12:38:37;;;;;;;23.55;11.55;;;16.80;99.90;;;;;;5070713;28;20535;-85
2022/05/04 12:41:04;;;;;;;24.10;11.73;;;16.80;99.90;;;;;;5069877;28;20029;-88
2022/05/04 12:43:37;;;;;;;22.33;11.88;;;16.90;99.80;;;;;;5062059;28;20388;-85
2022/05/04 12:46:08;;;;;;;24.00;11.63;;;16.90;99.90;;;;;;5069433;28;20021;-83
2022/05/04 12:48:36;;;;;;;25.45;11.95;;;17.10;99.90;;;;;;5070732;28;20021;-84
2022/05/04 12:51:03;;;;;;;23.55;13.00;;;17.30;99.40;;;;;;5063514;28;20045;-86
2022/05/04 12:53:29;;;;;;;20.65;10.55;;;17.50;98.70;;;;;;5069723;28;20017;-87
2022/05/04 12:58:40;;;;;;;23.05;11.77;;;17.40;98.30;;;;;;5070958;28;20043;-83
2022/05/04 13:01:06;;;;;;;24.73;12.68;;;17.20;98.60;;;;;;5062206;28;20067;-84
2022/05/04 13:03:33;;;;;;;27.05;13.48;;;17.20;98.80;;;;;;5062280;28;20029;-85
2022/05/04 13:05:59;;;;;;;21.85;11.98;;;17.10;98.50;;;;;;5069650;28;20039;-84
2022/05/04 13:08:26;;;;;;;20.42;10.93;;;17.10;99.10;;;;;;5068863;28;20109;-84
2022/05/04 13:10:52;;;;;;;24.80;12.00;;;16.90;99.20;;;;;;5070359;28;20021;-85